createdAt,value
2023-02-04T00:00:29.949Z,17.70
2023-02-04T00:03:18.617Z,27.40
2023-02-04T00:05:47.549Z,17.50
2023-02-04T00:08:15.970Z,19.20
2023-02-04T00:10:44.310Z,15.00
2023-02-04T00:13:12.692Z,17.20
2023-02-04T00:15:41.093Z,16.90
2023-02-04T00:18:09.629Z,20.50
2023-02-04T00:20:38.058Z,17.30
2023-02-04T00:23:06.449Z,15.50
2023-02-04T00:25:34.814Z,23.10
2023-02-04T00:28:04.407Z,18.20
2023-02-04T00:30:33.558Z,18.00
2023-02-04T00:33:02.107Z,19.20
2023-02-04T00:35:30.460Z,19.30
2023-02-04T00:37:58.906Z,19.90
2023-02-04T00:40:27.405Z,16.30
2023-02-04T00:42:55.886Z,17.50
2023-02-04T00:45:24.233Z,17.70
2023-02-04T00:47:52.624Z,23.50
2023-02-04T00:50:21.105Z,17.50
2023-02-04T00:52:49.681Z,19.00
2023-02-04T00:55:18.354Z,16.20
2023-02-04T00:57:49.668Z,18.70
2023-02-04T01:00:18.605Z,15.90
2023-02-04T01:02:47.186Z,22.10
2023-02-04T01:05:15.689Z,24.50
2023-02-04T01:07:44.085Z,22.30
2023-02-04T01:10:12.894Z,22.80
2023-02-04T01:12:41.274Z,22.80
2023-02-04T01:15:10.790Z,21.20
2023-02-04T01:17:39.285Z,18.40
2023-02-04T01:20:09.345Z,19.20
2023-02-04T01:22:37.631Z,15.10
2023-02-04T01:25:06.593Z,17.10
2023-02-04T01:27:42.467Z,18.80
2023-02-04T01:30:12.991Z,15.90
2023-02-04T01:32:42.045Z,18.00
2023-02-04T01:35:10.482Z,21.50
2023-02-04T01:37:38.886Z,15.10
2023-02-04T01:40:08.091Z,17.70
2023-02-04T01:42:36.664Z,13.00
2023-02-04T01:45:09.018Z,12.30
2023-02-04T01:47:38.402Z,16.80
2023-02-04T01:50:13.102Z,18.90
2023-02-04T01:52:42.978Z,16.30
2023-02-04T01:55:18.618Z,16.30
2023-02-04T02:00:25.854Z,12.90
2023-02-04T02:02:54.401Z,13.60
2023-02-04T02:05:32.037Z,11.90
2023-02-04T02:08:03.694Z,12.00
2023-02-04T02:10:33.838Z,11.40
2023-02-04T02:13:02.499Z,13.30
2023-02-04T02:15:32.245Z,11.90
2023-02-04T02:18:00.993Z,10.00
2023-02-04T02:20:31.211Z,10.80
2023-02-04T02:23:26.168Z,8.20
2023-02-04T02:25:54.566Z,11.10
2023-02-04T02:28:24.615Z,8.80
2023-02-04T02:30:53.223Z,8.70
2023-02-04T02:33:21.879Z,9.40
2023-02-04T02:35:51.372Z,6.70
2023-02-04T02:38:20.870Z,10.10
2023-02-04T02:40:51.430Z,13.60
2023-02-04T02:43:26.058Z,12.00
2023-02-04T02:45:57.216Z,10.70
2023-02-04T02:48:26.119Z,7.70
2023-02-04T02:50:55.067Z,9.70
2023-02-04T02:53:23.589Z,7.60
2023-02-04T02:55:52.228Z,8.00
2023-02-04T02:58:28.691Z,6.80
2023-02-04T03:00:57.790Z,9.10
2023-02-04T03:03:34.401Z,9.40
2023-02-04T03:06:25.671Z,8.00
2023-02-04T03:08:57.080Z,9.50
2023-02-04T03:11:29.905Z,9.20
2023-02-04T03:14:03.525Z,10.60
2023-02-04T03:16:37.100Z,11.50
2023-02-04T03:19:07.860Z,8.20
2023-02-04T03:21:36.835Z,6.60
2023-02-04T03:24:06.140Z,8.30
2023-02-04T03:26:35.076Z,11.20
2023-02-04T03:29:08.143Z,12.10
2023-02-04T03:31:38.473Z,9.80
2023-02-04T03:34:07.504Z,11.20
2023-02-04T03:36:36.736Z,10.90
2023-02-04T03:39:07.334Z,9.60
2023-02-04T03:41:35.715Z,13.60
2023-02-04T03:44:04.249Z,11.80
2023-02-04T03:46:32.607Z,12.40
2023-02-04T03:49:00.991Z,11.40
2023-02-04T03:51:29.378Z,10.60
2023-02-04T03:53:57.684Z,6.70
2023-02-04T03:56:26.054Z,8.10
2023-02-04T03:58:54.436Z,6.90
2023-02-04T04:01:22.924Z,9.70
2023-02-04T04:03:51.373Z,5.70
2023-02-04T04:06:20.453Z,5.00
2023-02-04T04:08:51.900Z,5.30
2023-02-04T04:11:22.182Z,3.60
2023-02-04T04:13:50.585Z,5.10
2023-02-04T04:16:22.189Z,4.00
2023-02-04T04:18:51.796Z,4.20
2023-02-04T04:21:20.101Z,6.30
2023-02-04T04:23:48.492Z,4.10
2023-02-04T04:26:17.722Z,6.50
2023-02-04T04:28:46.090Z,6.10
2023-02-04T04:31:17.587Z,4.70
2023-02-04T04:33:45.980Z,3.50
2023-02-04T04:36:15.115Z,4.60
2023-02-04T04:38:43.442Z,5.80
2023-02-04T04:41:11.796Z,6.20
2023-02-04T04:43:40.022Z,3.50
2023-02-04T04:46:08.318Z,6.40
2023-02-04T04:48:36.711Z,7.70
2023-02-04T04:51:05.121Z,8.50
2023-02-04T04:53:33.466Z,8.00
2023-02-04T04:56:01.838Z,8.50
2023-02-04T04:58:30.223Z,8.40
2023-02-04T05:00:58.562Z,9.90
2023-02-04T05:03:27.393Z,12.20
2023-02-04T05:05:55.725Z,11.80
2023-02-04T05:08:24.112Z,11.80
2023-02-04T05:10:52.462Z,12.60
2023-02-04T05:13:20.740Z,12.50
2023-02-04T05:15:49.073Z,12.60
2023-02-04T05:18:17.446Z,12.30
2023-02-04T05:20:45.952Z,16.00
2023-02-04T05:23:14.470Z,14.30
2023-02-04T05:25:43.068Z,15.20
2023-02-04T05:28:11.476Z,12.30
2023-02-04T05:30:39.813Z,12.80
2023-02-04T05:33:08.272Z,14.70
2023-02-04T05:35:36.607Z,11.20
2023-02-04T05:38:04.943Z,13.20
2023-02-04T05:40:33.636Z,11.50
2023-02-04T05:43:05.252Z,12.60
2023-02-04T05:45:33.842Z,13.80
2023-02-04T05:48:02.339Z,16.40
2023-02-04T05:50:31.290Z,15.10
2023-02-04T05:53:10.381Z,15.60
2023-02-04T05:55:39.420Z,15.30
2023-02-04T05:58:09.894Z,14.50
2023-02-04T06:00:38.870Z,14.60
2023-02-04T06:03:07.217Z,14.60
2023-02-04T06:05:35.602Z,15.40
2023-02-04T06:08:04.174Z,16.90
2023-02-04T06:10:33.116Z,17.00
2023-02-04T06:13:01.782Z,18.20
2023-02-04T06:15:30.403Z,15.40
2023-02-04T06:17:58.929Z,16.10
2023-02-04T06:20:27.464Z,17.30
2023-02-04T06:22:55.791Z,17.90
2023-02-04T06:25:24.292Z,20.40
2023-02-04T06:27:52.739Z,21.40
2023-02-04T06:30:21.304Z,21.60
2023-02-04T06:32:49.641Z,21.00
2023-02-04T06:35:18.303Z,21.10
2023-02-04T06:37:46.774Z,23.00
2023-02-04T06:40:15.137Z,20.30
2023-02-04T06:42:43.466Z,19.30
2023-02-04T06:45:11.940Z,19.10
2023-02-04T06:47:40.320Z,16.90
2023-02-04T06:50:12.387Z,17.50
2023-02-04T06:52:40.855Z,16.60
2023-02-04T06:55:09.499Z,14.40
2023-02-04T06:57:37.802Z,14.50
2023-02-04T07:00:08.999Z,16.00
2023-02-04T07:02:39.500Z,15.70
2023-02-04T07:05:08.877Z,15.60
2023-02-04T07:07:37.229Z,13.90
2023-02-04T07:10:06.058Z,13.90
2023-02-04T07:12:34.430Z,12.00
2023-02-04T07:15:02.792Z,12.10
2023-02-04T07:17:31.234Z,11.10
2023-02-04T07:19:59.662Z,15.30
2023-02-04T07:22:28.005Z,14.20
2023-02-04T07:24:57.542Z,14.80
2023-02-04T07:27:25.974Z,12.20
2023-02-04T07:29:57.163Z,15.50
2023-02-04T07:32:28.172Z,16.10
2023-02-04T07:34:56.654Z,12.50
2023-02-04T07:37:25.166Z,16.70
2023-02-04T07:39:53.614Z,20.70
2023-02-04T07:42:22.137Z,18.40
2023-02-04T07:44:55.009Z,16.70
2023-02-04T07:47:23.452Z,16.30
2023-02-04T07:49:51.908Z,21.50
2023-02-04T07:52:20.387Z,15.00
2023-02-04T07:54:49.431Z,17.20
2023-02-04T07:57:20.414Z,14.90
2023-02-04T07:59:49.182Z,17.00
2023-02-04T08:02:17.599Z,17.00
2023-02-04T08:04:46.021Z,13.90
2023-02-04T08:07:14.555Z,14.90
2023-02-04T08:09:43.095Z,14.20
2023-02-04T08:12:11.468Z,12.60
2023-02-04T08:14:39.932Z,12.50
2023-02-04T08:17:08.363Z,12.00
2023-02-04T08:19:36.737Z,12.60
2023-02-04T08:22:05.300Z,10.00
2023-02-04T08:24:33.661Z,11.40
2023-02-04T08:27:02.063Z,11.10
2023-02-04T08:29:30.614Z,10.80
2023-02-04T08:31:59.559Z,10.20
2023-02-04T08:34:27.936Z,11.10
2023-02-04T08:36:56.740Z,9.80
2023-02-04T08:39:25.164Z,13.00
2023-02-04T08:41:53.774Z,11.70
2023-02-04T08:44:23.028Z,8.80
2023-02-04T08:46:51.771Z,9.60
2023-02-04T08:49:20.272Z,9.70
2023-02-04T08:51:48.754Z,10.00
2023-02-04T08:54:17.187Z,9.10
2023-02-04T08:56:45.787Z,11.00
2023-02-04T08:59:14.473Z,10.60
2023-02-04T09:01:43.232Z,13.60
2023-02-04T09:04:11.642Z,13.80
2023-02-04T09:06:40.293Z,12.60
2023-02-04T09:09:08.769Z,10.00
2023-02-04T09:11:37.585Z,10.30
2023-02-04T09:14:07.395Z,9.70
2023-02-04T09:16:35.840Z,9.00
2023-02-04T09:19:04.941Z,10.60
2023-02-04T09:21:33.480Z,8.10
2023-02-04T09:24:01.844Z,11.00
2023-02-04T09:26:30.778Z,14.50
2023-02-04T09:28:59.260Z,16.00
2023-02-04T09:31:27.802Z,12.80
2023-02-04T09:33:56.371Z,13.90
2023-02-04T09:36:28.679Z,10.20
2023-02-04T09:38:57.084Z,11.40
2023-02-04T09:41:25.689Z,15.50
2023-02-04T09:43:54.048Z,12.90
2023-02-04T09:46:28.616Z,13.90
2023-02-04T09:49:04.447Z,13.00
2023-02-04T09:51:35.386Z,14.80
2023-02-04T09:54:23.179Z,13.90
2023-02-04T09:56:53.339Z,17.90
2023-02-04T09:59:24.133Z,15.00
2023-02-04T10:02:00.694Z,13.90
2023-02-04T10:04:38.984Z,18.00
2023-02-04T10:07:12.823Z,16.50
2023-02-04T10:09:50.482Z,14.30
2023-02-04T10:12:19.968Z,12.60
2023-02-04T10:14:49.447Z,15.00
2023-02-04T10:17:22.193Z,17.30
2023-02-04T10:19:50.776Z,15.60
2023-02-04T10:22:22.823Z,13.30
2023-02-04T10:24:51.336Z,16.00
2023-02-04T10:27:19.917Z,15.80
2023-02-04T10:29:59.554Z,16.50
2023-02-04T10:32:34.023Z,13.00
2023-02-04T10:35:04.228Z,15.90
2023-02-04T10:37:32.733Z,14.10
2023-02-04T10:40:01.169Z,17.20
2023-02-04T10:42:31.374Z,15.70
2023-02-04T10:44:59.985Z,16.40
2023-02-04T10:47:31.775Z,13.40
2023-02-04T10:50:08.815Z,20.50
2023-02-04T10:52:43.767Z,17.40
2023-02-04T10:57:46.500Z,12.40
2023-02-04T11:00:17.479Z,15.60
2023-02-04T11:02:49.961Z,15.40
2023-02-04T11:05:21.751Z,11.80
2023-02-04T11:07:51.611Z,15.30
2023-02-04T11:10:23.655Z,14.70
2023-02-04T11:12:55.229Z,15.20
2023-02-04T11:15:50.170Z,15.60
2023-02-04T11:18:22.393Z,16.60
2023-02-04T11:20:54.181Z,14.90
2023-02-04T11:23:36.498Z,12.80
2023-02-04T11:26:08.000Z,13.20
2023-02-04T11:28:45.582Z,17.40
2023-02-04T11:31:22.196Z,10.30
2023-02-04T11:34:09.582Z,13.60
2023-02-04T11:36:59.799Z,14.90
2023-02-04T11:39:37.310Z,10.00
2023-02-04T11:42:15.473Z,10.80
2023-02-04T11:44:50.376Z,18.80
2023-02-04T11:47:19.411Z,17.20
2023-02-04T11:49:55.124Z,13.30
2023-02-04T11:52:23.775Z,9.80
2023-02-04T11:55:00.506Z,9.90
2023-02-04T11:57:29.719Z,10.30
2023-02-04T12:00:00.252Z,8.70
2023-02-04T12:02:28.809Z,5.90
2023-02-04T12:05:13.157Z,9.50
2023-02-04T12:07:44.824Z,11.30
2023-02-04T12:10:25.430Z,19.40
2023-02-04T12:12:59.893Z,12.10
2023-02-04T12:15:37.549Z,21.20
2023-02-04T12:18:09.994Z,20.30
2023-02-04T12:20:39.183Z,13.20
2023-02-04T12:23:08.878Z,9.70
2023-02-04T12:25:37.209Z,10.10
2023-02-04T12:28:05.975Z,12.40
2023-02-04T12:30:36.406Z,8.30
2023-02-04T12:33:08.848Z,11.80
2023-02-04T12:35:38.544Z,10.10
2023-02-04T12:38:20.518Z,16.50
2023-02-04T12:40:59.555Z,11.60
2023-02-04T12:43:31.271Z,12.60
2023-02-04T12:45:59.954Z,22.20
2023-02-04T12:48:35.044Z,15.90
2023-02-04T12:51:10.343Z,11.60
2023-02-04T12:53:39.108Z,10.20
2023-02-04T12:56:21.113Z,8.60
2023-02-04T12:58:53.182Z,13.40
2023-02-04T13:01:29.187Z,13.30
2023-02-04T13:03:58.649Z,12.40
2023-02-04T13:06:28.338Z,13.90
2023-02-04T13:09:04.070Z,12.40
2023-02-04T13:11:49.394Z,10.80
2023-02-04T13:14:28.829Z,10.50
2023-02-04T13:17:04.130Z,10.70
2023-02-04T13:19:57.893Z,10.40
2023-02-04T13:22:59.951Z,9.70
2023-02-04T13:25:39.708Z,5.60
2023-02-04T13:28:23.501Z,8.60
2023-02-04T13:30:55.944Z,9.60
2023-02-04T13:33:25.460Z,10.30
2023-02-04T13:35:55.860Z,8.00
2023-02-04T13:38:32.097Z,10.10
2023-02-04T13:41:27.427Z,7.00
2023-02-04T13:44:13.491Z,6.90
2023-02-04T13:46:42.152Z,7.40
2023-02-04T13:49:14.416Z,6.20
2023-02-04T13:51:45.585Z,9.20
2023-02-04T13:54:14.601Z,9.10
2023-02-04T13:56:43.260Z,7.60
2023-02-04T13:59:23.529Z,7.70
2023-02-04T14:01:52.453Z,8.60
2023-02-04T14:04:45.268Z,8.30
2023-02-04T14:07:33.984Z,18.30
2023-02-04T14:10:06.353Z,16.40
2023-02-04T14:12:35.151Z,23.00
2023-02-04T14:15:07.403Z,10.30
2023-02-04T14:17:47.940Z,8.20
2023-02-04T14:20:23.116Z,9.20
2023-02-04T14:23:07.490Z,17.20
2023-02-04T14:25:49.972Z,23.30
2023-02-04T14:28:47.431Z,13.80
2023-02-04T14:31:22.526Z,10.70
2023-02-04T14:33:53.107Z,11.20
2023-02-04T14:36:39.640Z,13.30
2023-02-04T14:39:56.431Z,15.40
2023-02-04T14:42:18.267Z,12.90
2023-02-04T14:44:56.099Z,15.90
2023-02-04T14:47:26.726Z,27.00
2023-02-04T14:52:46.160Z,25.70
2023-02-04T14:55:15.500Z,22.20
2023-02-04T14:57:46.392Z,14.40
2023-02-04T15:00:26.072Z,11.80
2023-02-04T15:02:59.530Z,11.50
2023-02-04T15:05:28.662Z,15.90
2023-02-04T15:07:56.974Z,10.40
2023-02-04T15:10:37.084Z,11.30
2023-02-04T15:13:05.966Z,12.80
2023-02-04T15:15:34.758Z,12.30
2023-02-04T15:18:03.274Z,18.60
2023-02-04T15:20:34.696Z,13.00
2023-02-04T15:23:03.748Z,12.70
2023-02-04T15:25:35.410Z,20.90
2023-02-04T15:28:04.200Z,18.50
2023-02-04T15:30:33.402Z,14.60
2023-02-04T15:33:02.252Z,14.30
2023-02-04T15:35:30.687Z,16.20
2023-02-04T15:37:59.388Z,17.20
2023-02-04T15:40:30.391Z,11.30
2023-02-04T15:42:59.174Z,12.50
2023-02-04T15:45:30.754Z,16.50
2023-02-04T15:47:59.169Z,16.90
2023-02-04T15:50:28.997Z,19.90
2023-02-04T15:52:58.536Z,14.50
2023-02-04T15:55:27.093Z,12.20
2023-02-04T15:57:55.720Z,14.10
2023-02-04T16:00:24.251Z,17.70
2023-02-04T16:02:52.709Z,10.20
2023-02-04T16:05:21.114Z,17.10
2023-02-04T16:07:49.500Z,17.20
2023-02-04T16:10:18.615Z,12.40
2023-02-04T16:12:51.520Z,18.70
2023-02-04T16:15:19.940Z,17.50
2023-02-04T16:17:48.416Z,16.00
2023-02-04T16:20:18.572Z,21.10
2023-02-04T16:22:46.961Z,17.70
2023-02-04T16:25:15.720Z,15.30
2023-02-04T16:27:45.159Z,15.10
2023-02-04T16:30:14.064Z,35.00
2023-02-04T16:32:42.905Z,26.20
2023-02-04T16:35:11.374Z,20.60
2023-02-04T16:37:41.444Z,18.60
2023-02-04T16:40:13.489Z,23.30
2023-02-04T16:42:42.226Z,20.30
2023-02-04T16:45:10.636Z,19.80
2023-02-04T16:47:39.241Z,24.70
2023-02-04T16:50:08.024Z,19.10
2023-02-04T16:52:36.451Z,16.60
2023-02-04T16:55:08.834Z,16.40
2023-02-04T16:57:37.386Z,19.40
2023-02-04T17:00:06.484Z,20.30
2023-02-04T17:02:37.399Z,21.10
2023-02-04T17:05:06.390Z,16.10
2023-02-04T17:07:35.872Z,29.90
2023-02-04T17:10:05.461Z,28.60
2023-02-04T17:12:34.062Z,21.30
2023-02-04T17:15:02.490Z,17.70
2023-02-04T17:17:30.895Z,14.40
2023-02-04T17:20:10.061Z,14.60
2023-02-04T17:22:38.517Z,20.70
2023-02-04T17:25:07.257Z,14.60
2023-02-04T17:27:35.820Z,17.80
2023-02-04T17:30:04.640Z,16.80
2023-02-04T17:32:33.108Z,15.70
2023-02-04T17:35:02.077Z,21.80
2023-02-04T17:37:30.440Z,19.90
2023-02-04T17:39:59.112Z,25.20
2023-02-04T17:42:28.302Z,25.90
2023-02-04T17:44:56.726Z,22.90
2023-02-04T17:47:25.132Z,22.10
2023-02-04T17:49:56.111Z,24.40
2023-02-04T17:52:26.789Z,18.40
2023-02-04T17:54:55.210Z,20.60
2023-02-04T17:57:23.583Z,21.30
2023-02-04T17:59:54.787Z,16.90
2023-02-04T18:02:29.984Z,22.00
2023-02-04T18:05:04.108Z,22.20
2023-02-04T18:07:32.832Z,22.30
2023-02-04T18:10:21.762Z,21.90
2023-02-04T18:12:50.179Z,25.80
2023-02-04T18:15:31.221Z,21.30
2023-02-04T18:18:22.062Z,19.50
2023-02-04T18:21:25.617Z,24.40
2023-02-04T18:24:09.118Z,20.90
2023-02-04T18:26:56.479Z,25.40
2023-02-04T18:29:27.152Z,22.80
2023-02-04T18:32:15.773Z,26.50
2023-02-04T18:34:50.456Z,21.60
2023-02-04T18:37:31.829Z,19.50
2023-02-04T18:40:14.464Z,17.80
2023-02-04T18:42:45.699Z,17.10
2023-02-04T18:45:20.434Z,13.60
2023-02-04T18:47:57.959Z,15.90
2023-02-04T18:50:32.240Z,19.30
2023-02-04T18:53:13.704Z,25.70
2023-02-04T18:55:51.649Z,25.40
2023-02-04T18:58:49.426Z,36.00
2023-02-04T19:01:27.913Z,30.70
2023-02-04T19:04:03.699Z,27.70
2023-02-04T19:06:37.825Z,26.30
2023-02-04T19:09:12.425Z,22.60
2023-02-04T19:12:08.570Z,24.60
2023-02-04T19:17:08.242Z,21.80
2023-02-04T19:19:44.065Z,18.10
2023-02-04T19:22:20.073Z,19.90
2023-02-04T19:25:18.455Z,22.40
2023-02-04T19:27:55.313Z,26.60
2023-02-04T19:30:28.406Z,19.80
2023-02-04T19:33:06.099Z,19.00
2023-02-04T19:35:48.234Z,20.70
2023-02-04T19:38:40.146Z,24.20
2023-02-04T19:41:26.893Z,20.70
2023-02-04T19:44:10.524Z,20.60
2023-02-04T19:46:42.794Z,24.80
2023-02-04T19:49:30.073Z,20.80
2023-02-04T19:51:59.311Z,22.60
2023-02-04T19:54:38.698Z,25.00
2023-02-04T19:57:29.384Z,26.20
2023-02-04T20:00:00.791Z,20.70
2023-02-04T20:02:37.564Z,20.60
2023-02-04T20:05:31.956Z,22.90
2023-02-04T20:08:33.072Z,22.30
2023-02-04T20:11:30.140Z,24.90
2023-02-04T20:14:10.728Z,21.90
2023-02-04T20:16:53.681Z,22.60
2023-02-04T20:19:35.776Z,21.90
2023-02-04T20:22:18.883Z,22.20
2023-02-04T20:24:57.183Z,24.90
2023-02-04T20:27:35.455Z,23.40
2023-02-04T20:30:11.956Z,21.50
2023-02-04T20:32:42.531Z,27.70
2023-02-04T20:35:17.119Z,30.30
2023-02-04T20:37:59.809Z,33.90
2023-02-04T20:40:37.603Z,35.00
2023-02-04T20:43:17.040Z,32.70
2023-02-04T20:45:51.199Z,30.40
2023-02-04T20:48:27.493Z,29.00
2023-02-04T20:50:58.560Z,27.90
2023-02-04T20:53:45.532Z,27.50
2023-02-04T20:56:24.237Z,28.00
2023-02-04T20:59:23.919Z,29.40
2023-02-04T21:01:54.194Z,29.50
2023-02-04T21:04:38.783Z,20.70
2023-02-04T21:07:18.736Z,25.10
2023-02-04T21:09:48.495Z,27.80
2023-02-04T21:12:16.862Z,27.10
2023-02-04T21:14:48.505Z,25.10
2023-02-04T21:17:17.097Z,25.30
2023-02-04T21:19:45.462Z,24.50
2023-02-04T21:22:13.901Z,24.80
2023-02-04T21:24:44.887Z,25.50
2023-02-04T21:27:14.142Z,22.70
2023-02-04T21:29:42.708Z,25.00
2023-02-04T21:32:15.281Z,26.50
2023-02-04T21:34:43.603Z,24.50
2023-02-04T21:37:12.134Z,27.20
2023-02-04T21:39:41.180Z,24.80
2023-02-04T21:42:13.431Z,24.90
2023-02-04T21:44:42.179Z,27.40
2023-02-04T21:47:10.680Z,27.00
2023-02-04T21:49:42.697Z,26.60
2023-02-04T21:52:11.653Z,25.60
2023-02-04T21:54:42.680Z,27.70
2023-02-04T21:57:10.951Z,24.30
2023-02-04T21:59:39.270Z,23.50
2023-02-04T22:02:07.722Z,28.40
2023-02-04T22:04:36.075Z,24.40
2023-02-04T22:07:04.493Z,26.00
2023-02-04T22:09:32.823Z,26.60
2023-02-04T22:12:04.540Z,25.70
2023-02-04T22:14:32.977Z,24.70
2023-02-04T22:17:01.326Z,26.40
2023-02-04T22:19:29.755Z,27.00
2023-02-04T22:21:58.538Z,22.40
2023-02-04T22:24:27.362Z,27.10
2023-02-04T22:26:55.883Z,27.60
2023-02-04T22:29:28.928Z,25.40
2023-02-04T22:31:57.284Z,28.60
2023-02-04T22:34:26.724Z,23.00
2023-02-04T22:36:55.797Z,23.00
2023-02-04T22:39:25.106Z,23.60
2023-02-04T22:41:53.572Z,28.70
2023-02-04T22:44:24.506Z,22.00
2023-02-04T22:46:53.903Z,24.90
2023-02-04T22:49:22.274Z,26.60
2023-02-04T22:51:50.536Z,27.40
2023-02-04T22:54:18.904Z,29.70
2023-02-04T22:56:47.331Z,22.90
2023-02-04T22:59:15.590Z,24.10
2023-02-04T23:01:43.849Z,26.80
2023-02-04T23:04:12.273Z,26.40
2023-02-04T23:06:41.048Z,24.20
2023-02-04T23:09:09.402Z,23.40
2023-02-04T23:11:37.776Z,25.50
2023-02-04T23:14:06.137Z,26.20
2023-02-04T23:16:35.030Z,23.10
2023-02-04T23:19:03.615Z,21.10
2023-02-04T23:21:33.055Z,22.80
2023-02-04T23:24:01.541Z,24.50
2023-02-04T23:26:29.988Z,20.70
2023-02-04T23:29:01.029Z,24.30
2023-02-04T23:31:29.342Z,23.80
2023-02-04T23:33:57.704Z,24.30
2023-02-04T23:36:26.106Z,22.60
2023-02-04T23:38:54.391Z,23.50
2023-02-04T23:41:23.532Z,26.40
2023-02-04T23:43:51.830Z,24.40
2023-02-04T23:46:20.273Z,23.50
2023-02-04T23:48:48.587Z,23.10
2023-02-04T23:51:16.969Z,23.50
2023-02-04T23:53:45.330Z,21.10
2023-02-04T23:56:13.748Z,23.10
2023-02-04T23:58:41.993Z,24.50
